Flight Track Log - Related Links

Times and Time Zones

All times are in EDT time to prevent confusion due to time zone crossing. See the WBR2634 flight status page for this flight to view local times or setup timezone preferences in your user account.


Time Position Orientation Groundspeed Altitude Reporting Facility
EDT Latitude Longitude Course Direction KTS MPH feet Rate Location/Type
Mon 05:47:52 PM 40.8197 -91.1178 66° East 93 107 2,600  Level Chicago Center
Mon 05:48:54 PM 40.8328 -91.0817 64° Northeast 108 124 3,600 919 Climbing Chicago Center
Mon 05:49:56 PM 40.8467 -91.0417 65° Northeast 114 131 4,500 871 Climbing Chicago Center
Mon 05:50:00 PM 40.8343 -90.8630 72° East  Level FlightAware Approximate
Mon 05:50:58 PM 40.8603 -91.0025 65° Northeast 117 135 5,400  Level Chicago Center
Mon 05:51:00 PM 40.8676 -90.8315 36° Northeast  Level FlightAware Approximate
Mon 05:52:00 PM 40.8855 -90.7791 57° Northeast  Level FlightAware Approximate
Mon 05:52:00 PM 40.8733 -90.9600 68° East 122 140 6,100  Level Chicago Center
Mon 05:53:00 PM 40.9059 -90.7323 66° East  Level FlightAware Approximate
Mon 05:53:02 PM 40.8883 -90.9164 66° East 127 146 6,900  Level Chicago Center
Mon 05:54:04 PM 40.9075 -90.8647 64° Northeast 130 150 7,900 823 Climbing Chicago Center
Mon 05:55:06 PM 40.9211 -90.8206 68° East 131 151 8,600 581 Climbing Chicago Center
Mon 05:56:08 PM 40.9342 -90.7778 68° East 127 146 9,100 194 Climbing Chicago Center
Mon 05:57:10 PM 40.9481 -90.7331 68° East 130 150 9,000 -48 Descending Chicago Center
Mon 05:58:12 PM 40.9661 -90.6842 64° Northeast 142 163 9,000  Level Chicago Center
Mon 05:59:14 PM 40.9825 -90.6331 67° East 150 173 9,000  Level Chicago Center
Mon 06:00:18 PM 41.0056 -90.5717 64° Northeast 155 178 9,000  Level Chicago Center
Mon 06:01:21 PM 41.0228 -90.5197 66° East 154 177 9,000  Level Chicago Center
Mon 06:02:23 PM 41.0383 -90.4683 68° East 151 174 9,000 48 Level Chicago Center
Mon 06:03:25 PM 41.0567 -90.4153 65° Northeast 157 181 9,100  Climbing Chicago Center
Mon 06:04:27 PM 41.0736 -90.3647 66° East 151 174 9,000  Descending Chicago Center
Mon 06:05:29 PM 41.0911 -90.3114 66° East 156 180 9,100  Climbing Chicago Center
Mon 06:06:31 PM 41.1117 -90.2486 66° East 155 178 9,000 -48 Descending Chicago Center
Mon 06:07:33 PM 41.1294 -90.1953 66° East 156 180 9,000 48 Level Chicago Center
Mon 06:08:35 PM 41.1461 -90.1425 67° East 155 178 9,100 48 Climbing Chicago Center
Mon 06:09:37 PM 41.1625 -90.0892 68° East 155 178 9,100  Level Chicago Center
Mon 06:10:39 PM 41.1803 -90.0344 67° East 160 184 9,100 -48 Level Chicago Center
Mon 06:11:41 PM 41.1978 -89.9808 67° East 158 182 9,000  Descending Chicago Center
Mon 06:12:43 PM 41.2125 -89.9247 71° East 160 184 9,100 48 Climbing Chicago Center
Mon 06:13:46 PM 41.2322 -89.8586 68° East 160 184 9,100  Level Chicago Center
Mon 06:14:48 PM 41.2497 -89.8047 67° East 160 184 9,100  Level Chicago Center
Mon 06:15:50 PM 41.2669 -89.7494 67° East 161 185 9,100  Level Chicago Center
Mon 06:16:52 PM 41.2828 -89.6944 69° East 160 184 9,100  Level Chicago Center
Mon 06:17:54 PM 41.2989 -89.6378 69° East 162 186 9,100  Level Chicago Center
Mon 06:18:56 PM 41.3156 -89.5814 69° East 163 188 9,100  Level Chicago Center
Mon 06:19:58 PM 41.3358 -89.5128 68° East 165 190 9,100  Level Chicago Center
Mon 06:21:00 PM 41.3528 -89.4569 68° East 164 189 9,100  Level Chicago Center
Mon 06:22:02 PM 41.3703 -89.4011 67° East 163 188 9,100  Level Chicago Center
Mon 06:23:04 PM 41.3858 -89.3494 68° East 154 177 9,100 48 Level Chicago Center
Mon 06:24:06 PM 41.4017 -89.2958 68° East 155 178 9,200  Climbing Chicago Center
Mon 06:26:10 PM 41.4364 -89.1789 68° East 160 184 9,100 -65 Descending Chicago Center
Mon 06:27:12 PM 41.4544 -89.1258 66° East 160 184 9,000  Descending Chicago Center
Mon 06:28:14 PM 41.4714 -89.0744 66° East 156 180 9,100 48 Climbing Chicago Center
Mon 06:29:16 PM 41.4914 -89.0125 67° East 152 175 9,100  Level Chicago Center
Mon 06:30:18 PM 41.5075 -88.9594 68° East 156 180 9,100  Level Chicago Center
Mon 06:31:21 PM 41.5256 -88.9064 66° East 156 180 9,100 -145 Level Chicago Center
Mon 06:32:22 PM 41.5425 -88.8517 68° East 159 183 8,800 -339 Descending Chicago Center
Mon 06:33:25 PM 41.5592 -88.7953 68° East 164 189 8,400 -384 Descending Chicago Center
Mon 06:34:27 PM 41.5806 -88.7306 66° East 159 183 8,000 -194 Descending Chicago Center
Mon 06:35:29 PM 41.5964 -88.6781 68° East 154 177 8,000  Level Chicago Center
Mon 06:36:31 PM 41.6086 -88.6208 74° East 159 183 8,000 48 Level Chicago Center
Mon 06:37:33 PM 41.6297 -88.5733 59° Northeast 152 175 8,100 48 Climbing Chicago Center
Mon 06:38:35 PM 41.6361 -88.5181 81° East 152 175 8,100  Level Chicago Center
Mon 06:39:37 PM 41.6406 -88.4597 84° East 159 183 8,100  Level Chicago Center
Mon 06:40:39 PM 41.6467 -88.3889 83° East 162 186 8,100 -48 Level Chicago Center
Mon 06:41:41 PM 41.6814 -88.3672 25° Northeast 158 182 8,000 -339 Descending Chicago Center
Mon 06:42:43 PM 41.7219 -88.3736 353° North 149 171 7,400 -435 Descending Chicago Center
Mon 06:43:45 PM 41.7622 -88.3803 353° North 148 170 7,100 -145 Descending Chicago Center
Mon 06:44:47 PM 41.8006 -88.3850 355° North 140 161 7,100  Level Chicago Center
Mon 06:45:49 PM 41.8403 -88.3922 352° North 144 166 7,100 -242 Level Chicago Center
Mon 06:46:51 PM 41.8894 -88.3814 North 159 183 6,600 -585 Descending Chicago Center
Mon 06:47:52 PM 41.9308 -88.3603 21° North 162 186 5,900 -634 Descending Chicago Center
Mon 06:48:54 PM 41.9703 -88.3269 32° Northeast 180 207 5,300 -484 Descending Chicago Center
Mon 06:49:56 PM 41.9669 -88.2603 94° East 188 216 4,900 -387 Descending Chicago Center
Mon 06:50:58 PM 41.9672 -88.1944 90° East 183 211 4,500 -629 Descending Chicago Center
Mon 06:52:00 PM 41.9678 -88.1106 89° East 184 212 3,600 -970 Descending Chicago Center
Mon 06:52:37 PM 41.9667 -88.0667 92° East 184 212 2,900 -1,049 Descending Chicago TRACON
Mon 06:53:43 PM 41.9667 -88.0000 90° East 171 197 1,800 -950 Descending Chicago TRACON
Mon 06:54:37 PM 41.9667 -87.9500 90° East 152 175 1,000 -889 Descending Chicago TRACON

Login

Don't have an account? Register now (free) for customized features, flight alerts, and more!